地図

経路データ

SID SEASON NUMBER BASIN SUBBASIN NAME ISO_TIME NATURE LAT LON WMO_WIND WMO_PRES WMO_AGENCY TRACK_TYPE DIST2LAND LANDFALL IFLAG USA_AGENCY USA_ATCF_ID USA_LAT USA_LON USA_RECORD USA_STATUS USA_WIND USA_PRES USA_SSHS USA_R34_NE USA_R34_SE USA_R34_SW USA_R34_NW USA_R50_NE USA_R50_SE USA_R50_SW USA_R50_NW USA_R64_NE USA_R64_SE USA_R64_SW USA_R64_NW USA_POCI USA_ROCI USA_RMW USA_EYE TOKYO_LAT TOKYO_LON TOKYO_GRADE TOKYO_WIND TOKYO_PRES TOKYO_R50_DIR TOKYO_R50_LONG TOKYO_R50_SHORT TOKYO_R30_DIR TOKYO_R30_LONG TOKYO_R30_SHORT TOKYO_LAND CMA_LAT CMA_LON CMA_CAT CMA_WIND CMA_PRES HKO_LAT HKO_LON HKO_CAT HKO_WIND HKO_PRES NEWDELHI_LAT NEWDELHI_LON NEWDELHI_GRADE NEWDELHI_WIND NEWDELHI_PRES NEWDELHI_CI NEWDELHI_DP NEWDELHI_POCI REUNION_LAT REUNION_LON REUNION_TYPE REUNION_WIND REUNION_PRES REUNION_TNUM REUNION_CI REUNION_RMW REUNION_R34_NE REUNION_R34_SE REUNION_R34_SW REUNION_R34_NW REUNION_R50_NE REUNION_R50_SE REUNION_R50_SW REUNION_R50_NW REUNION_R64_NE REUNION_R64_SE REUNION_R64_SW REUNION_R64_NW BOM_LAT BOM_LON BOM_TYPE BOM_WIND BOM_PRES BOM_TNUM BOM_CI BOM_RMW BOM_R34_NE BOM_R34_SE BOM_R34_SW BOM_R34_NW BOM_R50_NE BOM_R50_SE BOM_R50_SW BOM_R50_NW BOM_R64_NE BOM_R64_SE BOM_R64_SW BOM_R64_NW BOM_ROCI BOM_POCI BOM_EYE BOM_POS_METHOD BOM_PRES_METHOD NADI_LAT NADI_LON NADI_CAT NADI_WIND NADI_PRES WELLINGTON_LAT WELLINGTON_LON WELLINGTON_WIND WELLINGTON_PRES DS824_LAT DS824_LON DS824_STAGE DS824_WIND DS824_PRES TD9636_LAT TD9636_LON TD9636_STAGE TD9636_WIND TD9636_PRES TD9635_LAT TD9635_LON TD9635_WIND TD9635_PRES TD9635_ROCI NEUMANN_LAT NEUMANN_LON NEUMANN_CLASS NEUMANN_WIND NEUMANN_PRES MLC_LAT MLC_LON MLC_CLASS MLC_WIND MLC_PRES USA_GUST BOM_GUST BOM_GUST_PER REUNION_GUST REUNION_GUST_PER USA_SEAHGT USA_SEARAD_NE USA_SEARAD_SE USA_SEARAD_SW USA_SEARAD_NW STORM_SPEED STORM_DIR
1959104N05149 1959 31 WP MM TILDA 1959-04-13 18:00:00 TS 4.60000 148.600 1004 tokyo main 762 762 _OO___________ -1 4.60000 148.600 2 1004 0 0 0 4.60000 148.600 1 29 1004 8 336
1959104N05149 1959 31 WP MM TILDA 1959-04-13 21:00:00 TS 4.94876 148.446 main 792 792 _PP___________ -1 4.95002 148.445 2 1003 0 0 4.94751 148.448 1 33 1003 9 340
1959104N05149 1959 31 WP MM TILDA 1959-04-14 00:00:00 TS 5.42000 148.300 1002 tokyo main 846 846 OOO______OOO__ jtwc_wp WP031959 5.60000 148.300 35 0 5.30000 148.300 2 1002 0 0 0 5.30000 148.300 2 38 1002 5.60000 148.300 TC 35 5.60000 148.300 2 35 5.60000 148.300 35 1000 180 9 337
1959104N05149 1959 31 WP MM TILDA 1959-04-14 03:00:00 TS 5.75517 148.103 main 888 887 PPP______PPP__ WP031959 5.86503 148.048 37 0 5.64998 148.165 2 1001 0 0 5.65749 148.157 2 43 998 5.86503 148.048 TC 37 5.83136 148.035 2 38 5.86503 148.048 38 998 180 8 326
1959104N05149 1959 31 WP MM TILDA 1959-04-14 06:00:00 TS 6.05402 147.876 1000 tokyo main 920 919 OOO______OPO__ jtwc_wp WP031959 6.10000 147.800 40 0 6.00000 148.000 9 1000 0 0 0 6.00000 148.000 3 48 994 6.10000 147.800 TC 40 6.06013 147.775 2 42 6.10000 147.800 42 997 180 7 320
1959104N05149 1959 31 WP MM TILDA 1959-04-14 09:00:00 TS 6.30937 147.631 main 941 941 PPP______PPP__ WP031959 6.29248 147.557 45 0 6.36498 147.780 9 1000 0 0 6.33000 147.808 3 48 994 6.29248 147.557 TC 45 6.28383 147.528 2 46 6.29248 147.557 46 995 180 7 315
1959104N05149 1959 31 WP MM TILDA 1959-04-14 12:00:00 TS 6.55000 147.383 1000 tokyo main 974 963 OOO______OOO__ jtwc_wp WP031959 6.50000 147.300 50 0 6.70000 147.500 9 1000 0 0 0 6.60000 147.600 3 48 994 6.50000 147.300 TC 50 6.50000 147.300 2 50 6.50000 147.300 50 994 180 7 313
1959104N05149 1959 31 WP MM TILDA 1959-04-14 15:00:00 TS 6.81872 147.089 main 997 997 PPP______PPP__ WP031959 6.81504 146.970 50 0 6.99506 147.128 9 997 0 0 6.76499 147.400 3 48 994 6.81504 146.970 TC 50 6.70714 147.095 2 51 6.81504 146.970 50 992 150 7 313
1959104N05149 1959 31 WP MM TILDA 1959-04-14 18:00:00 TS 7.05124 146.835 995 tokyo main 1030 1030 OOO______OPO__ jtwc_wp WP031959 7.10000 146.700 50 0 7.20000 146.800 9 995 0 0 0 6.90000 147.200 3 48 994 7.10000 146.700 TC 50 6.90744 146.912 2 52 7.10000 146.700 50 991 120 5 314
1959104N05149 1959 31 WP MM TILDA 1959-04-14 21:00:00 TS 7.18940 146.702 main 1042 1042 PPP______PPP__ WP031959 7.22246 146.605 52 0 7.27246 146.647 9 993 0 0 7.09249 147.000 3 53 993 7.22246 146.605 TC 52 7.10403 146.748 2 53 7.22246 146.605 52 990 120 3 321
1959104N05149 1959 31 WP MM TILDA 1959-04-15 00:00:00 TS 7.30000 146.633 992 tokyo main 1053 1053 OOO______OOO__ jtwc_wp WP031959 7.30000 146.600 55 0 7.30000 146.600 9 992 0 0 0 7.30000 146.800 3 58 992 7.30000 146.600 TC 55 7.30000 146.600 2 55 7.30000 146.600 55 989 120 3 336
1959104N05149 1959 31 WP MM TILDA 1959-04-15 03:00:00 TS 7.43810 146.596 main 1064 1064 PPP______PPP__ WP031959 7.42748 146.630 57 0 7.36998 146.615 9 991 0 0 7.49249 146.600 3 63 990 7.42748 146.630 TC 57 7.48369 146.473 2 57 7.42748 146.630 58 988 150 3 341
1959104N05149 1959 31 WP MM TILDA 1959-04-15 06:00:00 TS 7.61165 146.526 990 tokyo main 1087 1087 OOO______OPO__ jtwc_wp WP031959 7.60000 146.600 60 0 7.50000 146.600 9 990 0 0 0 7.70000 146.400 4 68 988 7.60000 146.600 TC 60 7.66992 146.357 2 60 7.60000 146.600 62 987 180 5 327
1959104N05149 1959 31 WP MM TILDA 1959-04-15 09:00:00 TS 7.83981 146.330 main 1109 1109 PPP______PPP__ WP031959 7.83505 146.373 62 0 7.72002 146.430 9 987 0 0 7.94250 146.193 4 72 985 7.83505 146.373 TC 62 7.87119 146.238 2 62 7.83505 146.373 63 983 180 6 319
1959104N05149 1959 31 WP MM TILDA 1959-04-15 12:00:00 TS 8.10000 146.100 985 tokyo main 1144 1144 OOO______OOO__ jtwc_wp WP031959 8.10000 146.100 65 1 8.00000 146.200 9 985 0 0 0 8.20000 146.000 4 77 983 8.10000 146.100 TC 65 8.10000 146.100 3 65 8.10000 146.100 65 980 180 6 323
1959104N05149 1959 31 WP MM TILDA 1959-04-15 15:00:00 TS 8.35714 145.940 main 1179 1179 PPP______PPP__ WP031959 8.33495 145.950 67 1 8.29249 146.000 9 982 0 0 8.44998 145.842 4 77 980 8.33495 145.950 TC 67 8.39551 145.950 3 66 8.33495 145.950 66 976 180 6 330
1959104N05149 1959 31 WP MM TILDA 1959-04-15 18:00:00 TS 8.63580 145.779 980 tokyo main 1202 1202 OOO______OPO__ jtwc_wp WP031959 8.60000 145.800 70 1 8.60000 145.800 9 980 0 0 0 8.70000 145.700 4 77 977 8.60000 145.800 TC 70 8.71480 145.775 3 67 8.60000 145.800 68 973 180 7 330
1959104N05149 1959 31 WP MM TILDA 1959-04-15 21:00:00 TS 8.95942 145.584 main 1248 1248 PPP______PPP__ WP031959 8.95747 145.580 70 1 8.90742 145.630 9 972 0 0 8.94996 145.572 4 82 972 8.95747 145.580 TC 70 9.02670 145.562 3 68 8.95747 145.580 69 969 210 8 325
1959104N05149 1959 31 WP MM TILDA 1959-04-16 00:00:00 TS 9.26667 145.333 965 tokyo main 1285 1285 OOO______OOO__ jtwc_wp WP031959 9.30000 145.300 70 1 9.20000 145.400 9 965 0 0 0 9.20000 145.400 5 87 968 9.30000 145.300 TC 70 9.30000 145.300 4 70 9.30000 145.300 70 966 240 8 314
1959104N05149 1959 31 WP MM TILDA 1959-04-16 03:00:00 TS 9.50856 145.009 main 1311 1311 PPP______PPP__ WP031959 9.53748 144.972 75 1 9.46504 145.030 9 962 0 0 9.47245 145.145 5 92 963 9.53748 144.972 TC 75 9.50142 144.963 4 73 9.53748 144.972 74 961 240 8 302
1959104N05149 1959 31 WP MM TILDA 1959-04-16 06:00:00 TS 9.69337 144.630 960 tokyo main 1340 1340 OOO______OPO__ jtwc_wp WP031959 9.70000 144.600 80 1 9.70000 144.600 9 960 0 0 0 9.70000 144.800 5 97 958 9.70000 144.600 TC 80 9.66025 144.580 4 77 9.70000 144.600 78 957 240 8 293
1959104N05149 1959 31 WP MM TILDA 1959-04-16 09:00:00 TS 9.83484 144.218 main 1359 1359 PPP______PPP__ WP031959 9.82253 144.192 82 1 9.92998 144.193 9 957 0 0 9.82257 144.357 5 101 954 9.82253 144.192 TC 82 9.78891 144.182 4 81 9.82253 144.192 81 954 270 8 287
1959104N05149 1959 31 WP MM TILDA 1959-04-16 12:00:00 TS 9.93333 143.817 955 tokyo main 1379 1379 OOO______OOO__ jtwc_wp WP031959 9.90000 143.800 85 2 10.1000 143.800 9 955 0 0 0 9.90000 143.900 6 106 951 9.90000 143.800 TC 85 9.90000 143.800 4 85 9.90000 143.800 85 951 300 7 283
1959104N05149 1959 31 WP MM TILDA 1959-04-16 15:00:00 TS 9.99575 143.484 main 1398 1398 PPP______PPP__ WP031959 9.94243 143.485 85 2 10.1650 143.435 9 952 0 0 9.99241 143.535 6 116 947 9.94243 143.485 TC 85 9.98981 143.478 4 85 9.94243 143.485 85 948 270 6 282
1959104N05149 1959 31 WP MM TILDA 1959-04-16 18:00:00 TS 10.0616 143.180 950 tokyo main 1417 1410 OOO______OPO__ jtwc_wp WP031959 10.0000 143.200 85 2 10.2000 143.100 9 950 0 0 0 10.1000 143.200 6 126 944 10.0000 143.200 TC 85 10.0698 143.177 4 85 10.0000 143.200 85 945 240 6 287
1959104N05149 1959 31 WP MM TILDA 1959-04-16 21:00:00 TS 10.1854 142.863 main 1421 1413 PPP______PPP__ WP031959 10.1350 142.893 85 2 10.2925 142.785 9 947 0 0 10.2500 142.828 6 131 941 10.1350 142.893 TC 85 10.1648 142.887 4 85 10.1350 142.893 85 943 240 7 294
1959104N05149 1959 31 WP MM TILDA 1959-04-17 00:00:00 TS 10.3333 142.567 945 tokyo main 1419 1415 OOO______OOO__ jtwc_wp WP031959 10.3000 142.600 85 2 10.4000 142.500 9 945 0 0 0 10.4000 142.500 6 136 939 10.3000 142.600 TC 85 10.3000 142.600 4 85 10.3000 142.600 85 941 240 6 297
1959104N05149 1959 31 WP MM TILDA 1959-04-17 03:00:00 TS 10.4517 142.323 main 1429 1426 PPP______PPP__ WP031959 10.4199 142.357 85 2 10.4699 142.250 9 942 0 0 10.4699 142.300 6 140 937 10.4199 142.357 TC 85 10.5107 142.316 4 85 10.4199 142.357 85 938 240 6 301
1959104N05149 1959 31 WP MM TILDA 1959-04-17 06:00:00 TS 10.6270 142.072 940 tokyo main 1433 1433 OOO______OPO__ jtwc_wp WP031959 10.6000 142.100 85 2 10.6000 142.000 9 940 0 0 0 10.6000 142.100 6 145 935 10.6000 142.100 TC 85 10.7622 142.030 4 85 10.6000 142.100 85 936 240 7 311
1959104N05149 1959 31 WP MM TILDA 1959-04-17 09:00:00 TS 10.9342 141.751 main 1456 1456 PPP______PPP__ WP031959 10.9275 141.765 85 2 10.8700 141.708 9 937 0 0 10.9200 141.773 6 145 933 10.9275 141.765 TC 85 11.0326 141.729 4 85 10.9275 141.765 85 934 240 9 315
1959104N05149 1959 31 WP MM TILDA 1959-04-17 12:00:00 TS 11.2833 141.400 935 tokyo main 1486 1481 OOO______OOO__ jtwc_wp WP031959 11.3000 141.400 85 2 11.2000 141.400 9 935 0 0 0 11.3000 141.400 6 145 932 11.3000 141.400 TC 85 11.3000 141.400 4 85 11.3000 141.400 85 932 240 9 315
1959104N05149 1959 31 WP MM TILDA 1959-04-17 15:00:00 TS 11.5965 141.066 main 1503 1499 PPP______PPP__ WP031959 11.6299 141.065 85 2 11.5149 141.122 9 932 0 0 11.6299 141.057 6 150 930 11.6299 141.065 TC 85 11.5445 141.021 4 85 11.6299 141.065 85 930 240 9 310
1959104N05149 1959 31 WP MM TILDA 1959-04-17 18:00:00 TS 11.8634 140.703 930 tokyo main 1518 1511 OOO______OPO__ jtwc_wp WP031959 11.9000 140.700 85 2 11.8000 140.800 9 930 0 0 0 11.9000 140.700 6 155 929 11.9000 140.700 TC 85 11.7801 140.615 4 85 11.9000 140.700 85 929 240 9 301
1959104N05149 1959 31 WP MM TILDA 1959-04-17 21:00:00 TS 12.0572 140.268 main 1524 1514 PPP______PPP__ WP031959 12.0801 140.250 85 2 12.0226 140.357 9 930 0 0 12.0800 140.300 6 155 928 12.0801 140.250 TC 85 12.0007 140.202 4 85 12.0801 140.250 85 928 240 9 292
1959104N05149 1959 31 WP MM TILDA 1959-04-18 00:00:00 TS 12.2000 139.833 930 tokyo main 1517 1494 OOO______OOO__ jtwc_wp WP031959 12.2000 139.800 85 2 12.2000 139.900 9 930 0 0 0 12.2000 139.900 6 155 928 12.2000 139.800 TC 85 12.2000 139.800 4 85 12.2000 139.800 85 928 240 8 288
1959104N05149 1959 31 WP MM TILDA 1959-04-18 03:00:00 TS 12.3130 139.466 main 1494 1454 PPP______PPP__ WP031959 12.2924 139.435 92 2 12.3499 139.527 9 930 0 0 12.2999 139.550 6 155 929 12.2924 139.435 TC 92 12.3512 139.415 4 93 12.2924 139.435 91 930 270 7 288
1959104N05149 1959 31 WP MM TILDA 1959-04-18 06:00:00 TS 12.4308 139.124 930 tokyo main 1454 1427 OOO______OPO__ jtwc_wp WP031959 12.4000 139.100 100 3 12.5000 139.200 9 930 0 0 0 12.4000 139.200 6 155 930 12.4000 139.100 TC 100 12.4849 139.047 4 102 12.4000 139.100 98 932 300 7 293
1959104N05149 1959 31 WP MM TILDA 1959-04-18 09:00:00 TS 12.5965 138.767 main 1427 1395 PPP______PPP__ WP031959 12.5775 138.735 110 3 12.6924 138.900 9 930 0 0 12.5275 138.792 6 155 931 12.5775 138.735 TC 110 12.6262 138.706 4 111 12.5775 138.735 109 933 300 8 299
1959104N05149 1959 31 WP MM TILDA 1959-04-18 12:00:00 TS 12.8000 138.433 930 tokyo main 1386 1357 OOO______OOO__ jtwc_wp WP031959 12.8000 138.400 120 4 12.9000 138.600 9 930 0 0 0 12.7000 138.400 6 155 933 12.8000 138.400 TC 120 12.8000 138.400 4 120 12.8000 138.400 120 934 300 8 305
1959104N05149 1959 31 WP MM TILDA 1959-04-18 15:00:00 TS 13.0278 138.133 main 1357 1339 PPP______PPP__ WP031959 13.0349 138.127 120 4 13.1001 138.220 9 930 0 0 12.9350 138.063 6 155 934 13.0349 138.127 TC 120 13.0267 138.131 4 120 13.0349 138.127 120 935 330 7 312
1959104N05149 1959 31 WP MM TILDA 1959-04-18 18:00:00 TS 13.2816 137.883 930 tokyo main 1340 1323 OOO______OPO__ jtwc_wp WP031959 13.3000 137.900 120 4 13.3000 137.900 9 930 0 0 0 13.2000 137.800 6 155 935 13.3000 137.900 TC 120 13.2898 137.897 4 120 13.3000 137.900 120 936 360 7 320
1959104N05149 1959 31 WP MM TILDA 1959-04-18 21:00:00 TS 13.5442 137.693 main 1323 1309 PPP______PPP__ WP031959 13.5925 137.685 120 4 13.4699 137.785 9 930 0 0 13.4349 137.627 6 155 934 13.5925 137.685 TC 120 13.5830 137.690 4 120 13.5925 137.685 120 935 360 7 328
1959104N05149 1959 31 WP MM TILDA 1959-04-19 00:00:00 TS 13.8333 137.533 930 tokyo main 1309 1303 OOO______OOO__ jtwc_wp WP031959 13.9000 137.500 120 4 13.7000 137.700 9 930 0 0 0 13.7000 137.500 6 155 934 13.9000 137.500 TC 120 13.9000 137.500 4 120 13.9000 137.500 120 935 360 7 331
1959104N05149 1959 31 WP MM TILDA 1959-04-19 03:00:00 TS 14.1404 137.357 main 1306 1290 PPP______PPP__ WP031959 14.1850 137.350 122 4 14.0626 137.458 9 930 0 0 14.0125 137.350 6 160 931 14.1850 137.350 TC 122 14.2122 137.286 4 120 14.1850 137.350 122 932 360 7 333
1959104N05149 1959 31 WP MM TILDA 1959-04-19 06:00:00 TS 14.4913 137.182 930 tokyo main 1292 1277 OOO______OPO__ jtwc_wp WP031959 14.5000 137.200 125 4 14.5000 137.200 9 930 0 0 0 14.4000 137.200 6 165 928 14.5000 137.200 TC 125 14.5475 137.090 4 120 14.5000 137.200 125 930 360 8 335
1959104N05149 1959 31 WP MM TILDA 1959-04-19 09:00:00 TS 14.8974 136.995 main 1279 1269 PPP______PPP__ WP031959 14.8775 136.993 122 4 14.9500 137.027 9 930 0 0 14.8925 137.043 6 160 930 14.8775 136.993 TC 122 14.9091 136.924 4 120 14.8775 136.993 122 931 360 9 338
1959104N05149 1959 31 WP MM TILDA 1959-04-19 12:00:00 TS 15.3333 136.833 930 tokyo main 1269 1267 OOO______OOO__ jtwc_wp WP031959 15.3000 136.800 120 4 15.4000 136.900 9 930 0 0 0 15.4000 136.900 6 155 932 15.3000 136.800 TC 120 15.3000 136.800 4 120 15.3000 136.800 120 933 360 9 342
1959104N05149 1959 31 WP MM TILDA 1959-04-19 15:00:00 TS 15.7676 136.711 main 1274 1274 PPP______PPP__ WP031959 15.7425 136.663 115 4 15.8150 136.792 9 932 0 0 15.8300 136.785 6 150 935 15.7425 136.663 TC 115 15.7333 136.700 4 117 15.7425 136.663 115 937 330 9 348
1959104N05149 1959 31 WP MM TILDA 1959-04-19 18:00:00 TS 16.1987 136.641 935 tokyo main 1277 1277 OOO______OPO__ jtwc_wp WP031959 16.2000 136.600 110 3 16.2000 136.700 9 935 0 0 0 16.2000 136.700 6 145 938 16.2000 136.600 TC 110 16.1923 136.645 4 115 16.2000 136.600 110 941 300 9 354
1959104N05149 1959 31 WP MM TILDA 1959-04-19 21:00:00 TS 16.6217 136.612 main 1293 1293 PPP______PPP__ WP031959 16.6650 136.605 110 3 16.5725 136.578 9 937 0 0 16.5075 136.635 6 135 941 16.6650 136.605 TC 110 16.6552 136.643 4 112 16.6650 136.605 110 944 300 8 0
1959104N05149 1959 31 WP MM TILDA 1959-04-20 00:00:00 TS 17.0167 136.650 940 tokyo main 1319 1319 OOO______OOO__ jtwc_wp WP031959 17.1000 136.700 110 3 16.9000 136.500 9 940 0 0 0 16.8000 136.600 6 126 944 17.1000 136.700 TC 110 17.1000 136.700 4 110 17.1000 136.700 110 947 300 8 11
1959104N05149 1959 31 WP MM TILDA 1959-04-20 03:00:00 TS 17.3735 136.769 main 1347 1347 PPP______PPP__ WP031959 17.4575 136.885 107 3 17.1575 136.527 9 942 0 0 17.1575 136.585 6 121 947 17.4575 136.885 TC 107 17.5536 136.849 4 108 17.4575 136.885 107 949 300 7 21
1959104N05149 1959 31 WP MM TILDA 1959-04-20 06:00:00 TS 17.7130 136.925 945 tokyo main 1370 1370 OOO______OPO__ jtwc_wp WP031959 17.8000 137.100 105 3 17.4000 136.600 9 945 0 0 0 17.5000 136.600 6 116 951 17.8000 137.100 TC 105 17.9778 137.049 4 107 17.8000 137.100 105 952 300 8 22
1959104N05149 1959 31 WP MM TILDA 1959-04-20 09:00:00 TS 18.0909 137.065 main 1409 1409 PPP______PPP__ WP031959 18.2450 137.287 105 3 17.7000 136.643 9 947 0 0 17.7725 136.635 6 111 954 18.2450 137.287 TC 105 18.3380 137.249 4 106 18.2450 137.287 105 954 300 7 19
1959104N05149 1959 31 WP MM TILDA 1959-04-20 12:00:00 TS 18.4000 137.167 950 tokyo main 1433 1433 OOO______OOO__ jtwc_wp WP031959 18.6000 137.400 105 3 18.0000 136.700 9 950 0 0 0 18.0000 136.700 6 106 958 18.6000 137.400 TC 105 18.6000 137.400 4 105 18.6000 137.400 105 957 300 5 14
1959104N05149 1959 31 WP MM TILDA 1959-04-20 15:00:00 TS 18.5591 137.187 main 1444 1444 PPP______PPP__ WP031959 18.7100 137.373 102 3 18.2800 136.792 9 955 0 0 18.2150 136.785 6 101 961 18.7100 137.373 TC 102 18.7296 137.429 4 100 18.7100 137.373 102 959 300 2 2
1959104N05149 1959 31 WP MM TILDA 1959-04-20 18:00:00 TS 18.6271 137.184 960 tokyo main 1444 1444 OOO______OPO__ jtwc_wp WP031959 18.7000 137.300 100 3 18.5000 136.900 9 960 0 0 0 18.4000 136.900 5 97 965 18.7000 137.300 TC 100 18.7624 137.403 4 96 18.7000 137.300 100 962 300 1 0
1959104N05149 1959 31 WP MM TILDA 1959-04-20 21:00:00 TS 18.6798 137.209 main 1449 1449 PPP______PPP__ WP031959 18.7075 137.292 95 2 18.6374 136.978 9 967 0 0 18.5800 137.050 5 87 970 18.7075 137.292 TC 95 18.7390 137.351 4 92 18.7075 137.292 94 969 270 1 41
1959104N05149 1959 31 WP MM TILDA 1959-04-21 00:00:00 TS 18.7000 137.250 975 tokyo main 1458 1458 OOO______OOO__ jtwc_wp WP031959 18.7000 137.300 90 2 18.7000 137.100 9 975 0 0 0 18.7000 137.200 4 77 976 18.7000 137.300 TC 90 18.7000 137.300 4 88 18.7000 137.300 88 976 240 1 74
1959104N05149 1959 31 WP MM TILDA 1959-04-21 03:00:00 TS 18.7084 137.313 main 1458 1458 PPP______PPP__ WP031959 18.7000 137.300 82 1 18.7301 137.365 9 980 0 0 18.7375 137.315 4 72 980 18.7000 137.300 TC 82 18.6828 137.301 4 84 18.7000 137.300 81 981 240 1 93
1959104N05149 1959 31 WP MM TILDA 1959-04-21 06:00:00 TS 18.6937 137.368 985 tokyo main 1467 1467 OOO______OPO__ jtwc_wp WP031959 18.7000 137.300 75 1 18.7000 137.600 9 985 0 0 0 18.7000 137.400 4 68 984 18.7000 137.300 TC 75 18.6625 137.307 4 81 18.7000 137.300 75 986 240 1 126
1959104N05149 1959 31 WP MM TILDA 1959-04-21 09:00:00 TS 18.6614 137.390 main 1467 1462 PPP______PPP__ WP031959 18.7000 137.300 75 1 18.5999 137.652 9 985 0 0 18.6075 137.480 4 68 985 18.7000 137.300 TC 75 18.6609 137.310 4 78 18.7000 137.300 75 986 240 1 0
1959104N05149 1959 31 WP MM TILDA 1959-04-21 12:00:00 TS 18.6333 137.383 985 tokyo main 1462 1462 OOO______OOO__ jtwc_wp WP031959 18.7000 137.300 75 1 18.5000 137.600 9 985 0 0 0 18.5000 137.500 4 68 987 18.7000 137.300 TC 75 18.7000 137.300 4 75 18.7000 137.300 75 987 240 1 203
1959104N05149 1959 31 WP MM TILDA 1959-04-21 15:00:00 TS 18.5798 137.358 main 1462 1453 PPP______PPP__ WP031959 18.6550 137.315 75 1 18.4250 137.530 9 987 0 0 18.3675 137.437 4 63 988 18.6550 137.315 TC 75 18.7216 137.236 4 75 18.6550 137.315 75 988 270 1 270
1959104N05149 1959 31 WP MM TILDA 1959-04-21 18:00:00 TS 18.6329 137.294 990 tokyo main 1453 1449 OOO______OPO__ jtwc_wp WP031959 18.7000 137.300 75 1 18.5000 137.400 9 990 0 0 0 18.4000 137.300 3 58 990 18.7000 137.300 TC 75 18.7976 137.163 4 75 18.7000 137.300 75 990 300 3 327
1959104N05149 1959 31 WP MM TILDA 1959-04-21 21:00:00 TS 18.8667 137.165 main 1460 1450 PPP______PPP__ WP031959 18.8950 137.208 75 1 18.7951 137.185 9 992 0 0 18.7451 137.071 3 58 991 18.8950 137.208 TC 75 18.9747 137.109 4 75 18.8950 137.208 75 991 300 7 341
1959104N05149 1959 31 WP MM TILDA 1959-04-22 00:00:00 TS 19.3000 137.050 995 tokyo main 1456 1391 OOO______OOO__ jtwc_wp WP031959 19.3000 137.100 75 1 19.3000 137.000 9 995 0 0 0 19.3000 136.900 3 58 992 19.3000 137.100 TC 75 19.3000 137.100 4 75 19.3000 137.100 75 992 300 11 352
1959104N05149 1959 31 WP MM TILDA 1959-04-22 03:00:00 TS 19.9400 136.998 main 1391 1320 PPP______PPP__ WP031959 19.9474 136.991 67 1 20.0149 136.947 9 995 0 0 19.9425 136.940 3 58 994 19.9474 136.991 TC 67 19.8400 137.127 4 66 19.9474 136.991 66 994 240 14 1
1959104N05149 1959 31 WP MM TILDA 1959-04-22 06:00:00 TS 20.6537 137.051 995 tokyo main 1315 1271 OOO______OPO__ jtwc_wp WP031959 20.7000 137.000 60 0 20.7000 137.000 9 995 0 0 0 20.6000 137.100 3 58 996 20.7000 137.000 TC 60 20.5220 137.209 4 57 20.7000 137.000 58 996 180 13 10
1959104N05149 1959 31 WP MM TILDA 1959-04-22 09:00:00 TS 21.2488 137.244 main 1271 1229 PPP______PPP__ WP031959 21.3576 137.240 50 0 21.0375 137.120 9 995 0 0 21.1149 137.263 3 53 996 21.3576 137.240 TC 50 21.2680 137.362 4 48 21.3576 137.240 49 996 150 13 21
1959104N05149 1959 31 WP MM TILDA 1959-04-22 12:00:00 TS 21.8167 137.533 995 tokyo main 1229 1187 OOO______OOO__ jtwc_wp WP031959 22.0000 137.600 40 0 21.3000 137.300 9 995 0 0 0 21.6000 137.500 3 48 996 22.0000 137.600 TC 40 22.0000 137.600 2 40 22.0000 137.600 40 997 120 13 25
1959104N05149 1959 31 WP MM TILDA 1959-04-22 15:00:00 TS 22.3987 137.809 main 1187 1156 PPP______PPP__ WP031959 22.6723 137.920 40 0 21.6216 137.383 9 995 0 0 22.0971 137.776 3 48 996 22.6723 137.920 TC 40 22.6567 137.933 2 38 22.6723 137.920 39 997 120 13 27
1959104N05149 1959 31 WP MM TILDA 1959-04-22 18:00:00 TS 22.9516 138.167 995 tokyo main 1153 1131 OOO______OPO__ jtwc_wp WP031959 23.3000 138.300 40 0 22.2000 137.700 9 995 0 0 0 22.7000 138.200 3 48 996 23.3000 138.300 TC 40 23.2440 138.344 2 37 23.3000 138.300 38 998 120 15 36
1959104N05149 1959 31 WP MM TILDA 1959-04-22 21:00:00 TS 23.5822 138.731 main 1128 1074 PPP______PPP__ WP031959 23.8305 138.772 37 0 23.2309 138.529 9 995 0 0 23.4602 138.833 3 43 997 23.8305 138.772 TC 37 23.7842 138.808 2 36 23.8305 138.772 36 999 120 19 40
1959104N05149 1959 31 WP MM TILDA 1959-04-23 00:00:00 TS 24.4000 139.500 995 tokyo main 1066 977 OOO______OOO__ jtwc_wp WP031959 24.3000 139.300 35 0 24.5000 139.600 9 995 0 0 0 24.4000 139.600 2 38 999 24.3000 139.300 TC 35 24.3000 139.300 2 35 24.3000 139.300 35 1000 120 26 37
1959104N05149 1959 31 WP MM TILDA 1959-04-23 03:00:00 TS 25.6379 140.460 main 981 902 _PP___________ WP031959 -1 25.7718 140.586 9 997 0 0 25.5039 140.335 2 33 1000 TC 2 30 35
1959104N05149 1959 31 WP MM TILDA 1959-04-23 06:00:00 TS 26.8286 141.371 1000 tokyo main 904 813 _OO___________ -1 27.0000 141.600 9 1000 0 0 0 26.7000 141.200 1 29 1002 2 29 37
1959104N05149 1959 31 WP MM TILDA 1959-04-23 09:00:00 TS 27.9337 142.402 main 815 745 _PP___________ -1 28.0566 142.640 9 1002 0 0 27.8723 142.283 1 29 1002 2 29 41
1959104N05149 1959 31 WP MM TILDA 1959-04-23 12:00:00 TS 29.0000 143.540 1004 tokyo main 740 705 _OO___________ -1 29.0000 143.700 9 1004 0 0 0 29.0000 143.500 1 29 1002 30 45
1959104N05149 1959 31 WP MM TILDA 1959-04-23 15:00:00 TS 30.0609 144.809 main 701 692 __P___________ -1 9 0 0 30.0609 144.809 1 29 1003 29 47
1959104N05149 1959 31 WP MM TILDA 1959-04-23 18:00:00 TS 31.0000 146.000 main 700 696 __O___________ -1 31.0000 146.000 1 29 1004 24 45
1959104N05149 1959 31 WP MM TILDA 1959-04-23 21:00:00 TS 31.7853 146.829 main 696 696 __P___________ -1 31.7853 146.829 1 29 1005 20 40
1959104N05149 1959 31 WP MM TILDA 1959-04-24 00:00:00 ET 32.5000 147.500 main 703 703 __O___________ -1 32.5000 147.500 9 29 1006 19 40
1959104N05149 1959 31 WP MM TILDA 1959-04-24 03:00:00 ET 33.2575 148.280 main 727 727 __P___________ -1 33.2575 148.280 9 1006 20 40
1959104N05149 1959 31 WP MM TILDA 1959-04-24 06:00:00 ET 34.0000 149.000 main 761 761 __O___________ -1 34.0000 149.000 9 1006 18 37
1959104N05149 1959 31 WP MM TILDA 1959-04-24 09:00:00 ET 34.7101 149.589 main 796 794 __P___________ -1 34.7101 149.589 9 1008 17 33
1959104N05149 1959 31 WP MM TILDA 1959-04-24 12:00:00 ET 35.4000 150.100 main 828 __O___________ -1 35.4000 150.100 9 1010 16 31

デジタル台風データ・検索

IBTrACS Databaseについて

本データベースは、米国NOAAが公開する1842年以降の世界の熱帯低気圧のベストトラックデータアーカイブInternational Best Track Archive for Climate Stewardship (IBTrACS)を、ウェブで閲覧しやすい形式に変換したものです。

最終更新日:2021-10-08